Terminal Aerodrome Forecast
Issued by NWS Twin Cities, MN

Home | Current Version | Previous Version | Text Only | Print | Product List | Glossary On
Versions: 1 2 3 4 5 6 7 8 9 10 11 12 13 14 15 16 17 18 19 20 21 22 23 24 25 26 27 28 29 30 31 32 33 34 35
664
FTUS43 KMPX 131802 CCA
TAFMSP
TAF COR
KMSP 131802Z 1318/1424 32018G30KT P6SM OVC020
     FM132200 33014G22KT P6SM BKN025 OVC060
     FM140200 32008KT P6SM OVC025
     FM140600 32004KT P6SM BKN025
     FM141100 29004KT P6SM BKN015
     FM142100 29005KT P6SM BKN035=

USA.gov is the U.S. government's official web portal to all federal, state and local government web resources and services.